createdAt,value
2023-06-19T00:01:08.707Z,95933.53
2023-06-19T00:03:35.704Z,95935.44
2023-06-19T00:06:02.898Z,95936.25
2023-06-19T00:08:29.751Z,95937.09
2023-06-19T00:10:56.522Z,95935.53
2023-06-19T00:13:23.505Z,95933.16
2023-06-19T00:15:50.318Z,95935.13
2023-06-19T00:18:19.103Z,95935.19
2023-06-19T00:20:47.508Z,95937.63
2023-06-19T00:23:15.778Z,95936.44
2023-06-19T00:25:44.419Z,95945.19
2023-06-19T00:28:13.555Z,95948.38
2023-06-19T00:30:40.956Z,95943.59
2023-06-19T00:33:08.656Z,95940.81
2023-06-19T00:35:35.529Z,95936.06
2023-06-19T00:38:02.267Z,95936.44
2023-06-19T00:40:31.510Z,95935.69
2023-06-19T00:42:58.551Z,95936.09
2023-06-19T00:45:26.494Z,95943.25
2023-06-19T00:47:54.563Z,95939.28
2023-06-19T00:50:22.545Z,95937.72
2023-06-19T00:52:50.106Z,95940.50
2023-06-19T00:55:18.220Z,95933.44
2023-06-19T00:57:46.234Z,95933.84
2023-06-19T01:00:16.249Z,95934.25
2023-06-19T01:02:43.448Z,95927.91
2023-06-19T01:05:10.296Z,95936.66
2023-06-19T01:07:42.839Z,95932.69
2023-06-19T01:10:14.707Z,95925.19
2023-06-19T01:12:51.891Z,95926.78
2023-06-19T01:15:19.475Z,95931.94
2023-06-19T01:17:48.006Z,95931.13
2023-06-19T01:20:15.970Z,95924.38
2023-06-19T01:22:46.011Z,95923.59
2023-06-19T01:25:14.956Z,95919.63
2023-06-19T01:27:46.436Z,95918.06
2023-06-19T01:30:13.993Z,95918.81
2023-06-19T01:33:01.849Z,95927.97
2023-06-19T01:35:30.825Z,95923.25
2023-06-19T01:38:01.297Z,95928.81
2023-06-19T01:40:32.954Z,95923.25
2023-06-19T01:43:02.274Z,95917.31
2023-06-19T01:45:31.230Z,95925.66
2023-06-19T01:47:58.837Z,95916.94
2023-06-19T01:50:26.305Z,95916.97
2023-06-19T01:52:53.665Z,95924.91
2023-06-19T01:55:21.324Z,95925.28
2023-06-19T01:57:48.289Z,95925.72
2023-06-19T02:00:16.260Z,95917.41
2023-06-19T02:02:43.800Z,95925.75
2023-06-19T02:05:11.155Z,95918.59
2023-06-19T02:07:38.155Z,95925.75
2023-06-19T02:10:06.365Z,95919.41
2023-06-19T02:12:33.019Z,95921.00
2023-06-19T02:14:59.768Z,95919.41
2023-06-19T02:17:26.629Z,95913.06
2023-06-19T02:19:53.419Z,95915.06
2023-06-19T02:22:20.242Z,95922.97
2023-06-19T02:24:47.099Z,95936.41
2023-06-19T02:27:13.834Z,95932.84
2023-06-19T02:29:40.538Z,95928.09
2023-06-19T02:32:07.609Z,95932.44
2023-06-19T02:34:34.844Z,95922.94
2023-06-19T02:37:01.593Z,95928.88
2023-06-19T02:39:28.458Z,95937.59
2023-06-19T02:41:55.288Z,95939.19
2023-06-19T02:44:22.056Z,95935.59
2023-06-19T02:46:48.877Z,95934.81
2023-06-19T02:49:16.284Z,95929.66
2023-06-19T02:51:43.547Z,95936.03
2023-06-19T02:54:10.282Z,95933.25
2023-06-19T02:56:37.059Z,95939.56
2023-06-19T02:59:03.788Z,95944.69
2023-06-19T03:01:30.558Z,95946.28
2023-06-19T03:03:57.461Z,95944.72
2023-06-19T03:06:24.227Z,95948.66
2023-06-19T03:08:52.185Z,95952.63
2023-06-19T03:11:19.451Z,95946.66
2023-06-19T03:13:53.635Z,95945.09
2023-06-19T03:16:21.498Z,95944.66
2023-06-19T03:18:52.932Z,95951.78
2023-06-19T03:21:23.195Z,95952.97
2023-06-19T03:23:51.362Z,95957.31
2023-06-19T03:26:21.619Z,95951.78
2023-06-19T03:28:49.142Z,95946.63
2023-06-19T03:31:16.673Z,95951.41
2023-06-19T03:33:43.728Z,95949.03
2023-06-19T03:36:11.453Z,95947.09
2023-06-19T03:38:49.031Z,95947.88
2023-06-19T03:41:19.145Z,95946.72
2023-06-19T03:43:47.069Z,95949.94
2023-06-19T03:46:14.251Z,95953.50
2023-06-19T03:48:41.046Z,95953.88
2023-06-19T03:51:08.427Z,95954.28
2023-06-19T03:53:35.360Z,95966.16
2023-06-19T03:56:02.074Z,95965.34
2023-06-19T03:58:28.876Z,95962.56
2023-06-19T04:00:55.591Z,95963.75
2023-06-19T04:03:22.783Z,95967.31
2023-06-19T04:05:49.652Z,95966.91
2023-06-19T04:08:17.160Z,95966.50
2023-06-19T04:10:44.521Z,95967.69
2023-06-19T04:13:11.470Z,95968.03
2023-06-19T04:15:38.920Z,95967.66
2023-06-19T04:18:05.881Z,95964.47
2023-06-19T04:20:32.694Z,95963.66
2023-06-19T04:22:59.582Z,95973.13
2023-06-19T04:25:26.423Z,95975.47
2023-06-19T04:27:53.506Z,95982.97
2023-06-19T04:30:22.280Z,95984.56
2023-06-19T04:32:49.500Z,95989.28
2023-06-19T04:35:19.698Z,95984.88
2023-06-19T04:37:46.575Z,95976.09
2023-06-19T04:40:13.313Z,95976.06
2023-06-19T04:42:40.095Z,95975.19
2023-06-19T04:45:10.744Z,95981.06
2023-06-19T04:47:51.779Z,95986.59
2023-06-19T04:50:19.817Z,95987.72
2023-06-19T04:52:46.600Z,95998.78
2023-06-19T04:55:13.344Z,96003.47
2023-06-19T04:57:40.098Z,96002.19
2023-06-19T05:00:08.501Z,96002.84
2023-06-19T05:02:35.617Z,95998.31
2023-06-19T05:05:04.940Z,95995.03
2023-06-19T05:07:34.458Z,95996.09
2023-06-19T05:10:01.376Z,95993.25
2023-06-19T05:12:28.195Z,96011.44
2023-06-19T05:14:55.055Z,96000.50
2023-06-19T05:17:22.628Z,96006.75
2023-06-19T05:19:49.678Z,96006.28
2023-06-19T05:22:16.589Z,96014.00
2023-06-19T05:24:43.505Z,96026.97
2023-06-19T05:27:10.351Z,96016.06
2023-06-19T05:29:37.882Z,96018.69
2023-06-19T05:32:05.544Z,96016.72
2023-06-19T05:34:32.320Z,96018.22
2023-06-19T05:37:01.920Z,96021.72
2023-06-19T05:39:29.242Z,96026.16
2023-06-19T05:41:55.890Z,96030.19
2023-06-19T05:44:22.646Z,96031.03
2023-06-19T05:46:49.538Z,96036.25
2023-06-19T05:49:16.358Z,96041.44
2023-06-19T05:51:43.061Z,96043.88
2023-06-19T05:54:11.417Z,96046.31
2023-06-19T05:56:38.426Z,96046.31
2023-06-19T05:59:05.639Z,96044.72
2023-06-19T06:01:32.578Z,96045.91
2023-06-19T06:03:59.473Z,96051.50
2023-06-19T06:06:29.608Z,96052.25
2023-06-19T06:08:56.774Z,96065.38
2023-06-19T06:11:24.392Z,96066.06
2023-06-19T06:13:51.145Z,96065.66
2023-06-19T06:16:17.927Z,96073.22
2023-06-19T06:18:46.258Z,96072.44
2023-06-19T06:21:14.382Z,96070.81
2023-06-19T06:23:46.231Z,96072.38
2023-06-19T06:26:13.293Z,96074.81
2023-06-19T06:28:40.513Z,96084.03
2023-06-19T06:31:08.345Z,96073.75
2023-06-19T06:33:35.111Z,96081.00
2023-06-19T06:36:01.887Z,96072.25
2023-06-19T06:38:28.686Z,96083.03
2023-06-19T06:40:55.648Z,96073.47
2023-06-19T06:43:22.434Z,96079.47
2023-06-19T06:45:49.462Z,96079.06
2023-06-19T06:48:17.062Z,96094.19
2023-06-19T06:50:44.553Z,96101.75
2023-06-19T06:53:11.419Z,96097.22
2023-06-19T06:55:38.893Z,96101.50
2023-06-19T06:58:06.333Z,96094.41
2023-06-19T07:00:33.459Z,96098.38
2023-06-19T07:03:00.371Z,96100.41
2023-06-19T07:05:27.240Z,96099.53
2023-06-19T07:07:54.029Z,96098.31
2023-06-19T07:10:20.725Z,96095.47
2023-06-19T07:12:49.432Z,96096.59
2023-06-19T07:15:17.218Z,96092.09
2023-06-19T07:17:47.508Z,96096.81
2023-06-19T07:20:14.918Z,96099.94
2023-06-19T07:22:43.193Z,96101.53
2023-06-19T07:25:12.245Z,96103.84
2023-06-19T07:27:39.413Z,96104.56
2023-06-19T07:30:06.864Z,96100.78
2023-06-19T07:32:34.232Z,96108.66
2023-06-19T07:35:01.117Z,96105.38
2023-06-19T07:37:27.997Z,96099.84
2023-06-19T07:39:54.766Z,96109.00
2023-06-19T07:42:21.849Z,96119.41
2023-06-19T07:44:49.108Z,96115.81
2023-06-19T07:47:19.086Z,96129.75
2023-06-19T07:49:47.149Z,96122.94
2023-06-19T07:52:14.713Z,96127.28
2023-06-19T07:54:56.924Z,96126.34
2023-06-19T07:57:25.343Z,96134.22
2023-06-19T07:59:53.057Z,96127.28
2023-06-19T08:02:19.992Z,96130.03
2023-06-19T08:04:50.213Z,96133.13
2023-06-19T08:07:17.663Z,96144.50
2023-06-19T08:09:44.495Z,96151.19
2023-06-19T08:12:11.344Z,96150.34
2023-06-19T08:14:39.652Z,96147.97
2023-06-19T08:17:06.946Z,96159.09
2023-06-19T08:19:33.849Z,96152.00
2023-06-19T08:22:00.674Z,96142.38
2023-06-19T08:24:27.534Z,96151.09
2023-06-19T08:26:54.647Z,96138.34
2023-06-19T08:29:21.994Z,96144.22
2023-06-19T08:31:48.660Z,96148.03
2023-06-19T08:34:16.810Z,96143.03
2023-06-19T08:36:43.654Z,96146.31
2023-06-19T08:39:10.807Z,96147.75
2023-06-19T08:41:38.812Z,96144.47
2023-06-19T08:44:09.111Z,96147.47
2023-06-19T08:46:38.431Z,96149.16
2023-06-19T08:49:07.396Z,96145.81
2023-06-19T08:51:34.837Z,96145.94
2023-06-19T08:54:06.456Z,96147.13
2023-06-19T08:56:35.427Z,96146.47
2023-06-19T08:59:14.160Z,96136.84
2023-06-19T09:01:41.579Z,96136.81
2023-06-19T09:04:13.183Z,96137.50
2023-06-19T09:06:57.961Z,96142.66
2023-06-19T09:09:26.669Z,96139.91
2023-06-19T09:12:06.979Z,96129.66
2023-06-19T09:14:40.592Z,96132.31
2023-06-19T09:17:20.663Z,96130.28
2023-06-19T09:19:50.986Z,96145.03
2023-06-19T09:22:22.083Z,96136.63
2023-06-19T09:24:49.836Z,96135.63
2023-06-19T09:27:20.421Z,96131.84
2023-06-19T09:29:49.471Z,96133.56
2023-06-19T09:32:23.513Z,96134.00
2023-06-19T09:34:54.149Z,96132.19
2023-06-19T09:37:25.968Z,96131.72
2023-06-19T09:40:00.916Z,96129.66
2023-06-19T09:42:31.536Z,96138.72
2023-06-19T09:45:05.274Z,96141.28
2023-06-19T09:47:48.783Z,96132.16
2023-06-19T09:50:18.145Z,96128.47
2023-06-19T09:52:48.316Z,96124.16
2023-06-19T09:55:15.438Z,96121.72
2023-06-19T09:57:44.876Z,96115.91
2023-06-19T10:00:16.952Z,96122.22
2023-06-19T10:02:47.878Z,96114.13
2023-06-19T10:05:15.889Z,96116.38
2023-06-19T10:07:46.696Z,96114.25
2023-06-19T10:10:26.518Z,96115.88
2023-06-19T10:12:56.637Z,96117.97
2023-06-19T10:15:27.843Z,96111.13
2023-06-19T10:18:02.434Z,96113.03
2023-06-19T10:20:34.995Z,96104.72
2023-06-19T10:23:01.816Z,96111.91
2023-06-19T10:25:34.322Z,96107.31
2023-06-19T10:28:01.542Z,96103.06
2023-06-19T10:30:30.231Z,96100.88
2023-06-19T10:32:57.210Z,96102.13
2023-06-19T10:35:25.594Z,96103.34
2023-06-19T10:37:52.692Z,96101.28
2023-06-19T10:40:19.641Z,96107.41
2023-06-19T10:42:47.107Z,96092.63
2023-06-19T10:45:17.022Z,96094.69
2023-06-19T10:47:44.731Z,96089.13
2023-06-19T10:50:15.881Z,96086.53
2023-06-19T10:52:49.102Z,96089.22
2023-06-19T10:55:16.265Z,96087.66
2023-06-19T10:57:46.312Z,96080.25
2023-06-19T11:00:27.644Z,96068.63
2023-06-19T11:02:55.223Z,96069.16
2023-06-19T11:05:22.901Z,96067.59
2023-06-19T11:07:58.545Z,96077.44
2023-06-19T11:10:27.276Z,96070.50
2023-06-19T11:12:59.085Z,96065.63
2023-06-19T11:15:33.397Z,96064.91
2023-06-19T11:18:02.007Z,96069.44
2023-06-19T11:20:29.247Z,96059.97
2023-06-19T11:23:01.919Z,96059.31
2023-06-19T11:25:38.911Z,96060.03
2023-06-19T11:28:11.543Z,96062.81
2023-06-19T11:30:38.565Z,96059.63
2023-06-19T11:33:16.653Z,96055.28
2023-06-19T11:35:48.606Z,96052.13
2023-06-19T11:38:24.270Z,96045.97
2023-06-19T11:40:51.379Z,96045.75
2023-06-19T11:43:33.720Z,96042.97
2023-06-19T11:46:09.554Z,96038.22
2023-06-19T11:48:40.281Z,96033.53
2023-06-19T11:51:07.297Z,96027.88
2023-06-19T11:53:35.289Z,96023.69
2023-06-19T11:56:01.994Z,96022.44
2023-06-19T11:58:28.722Z,96033.13
2023-06-19T12:00:57.659Z,96028.66
2023-06-19T12:03:24.563Z,96022.56
2023-06-19T12:05:51.472Z,96031.38
2023-06-19T12:08:18.292Z,96029.41
2023-06-19T12:10:45.116Z,96024.47
2023-06-19T12:13:11.881Z,96019.88
2023-06-19T12:15:38.610Z,96021.78
2023-06-19T12:18:08.177Z,96023.38
2023-06-19T12:20:35.905Z,96022.28
2023-06-19T12:23:02.666Z,96014.16
2023-06-19T12:25:29.389Z,96007.00
2023-06-19T12:27:57.579Z,96009.94
2023-06-19T12:30:25.063Z,96008.66
2023-06-19T12:32:54.222Z,96012.56
2023-06-19T12:35:21.876Z,96001.44
2023-06-19T12:37:48.883Z,96002.84
2023-06-19T12:40:15.736Z,96007.47
2023-06-19T12:42:42.486Z,96001.44
2023-06-19T12:45:09.800Z,96005.34
2023-06-19T12:47:37.271Z,96005.63
2023-06-19T12:50:04.823Z,96000.66
2023-06-19T12:52:32.160Z,96004.75
2023-06-19T12:55:00.863Z,95997.13
2023-06-19T12:57:27.645Z,95996.66
2023-06-19T12:59:54.420Z,95994.09
2023-06-19T13:02:21.377Z,95985.78
2023-06-19T13:04:48.368Z,95991.06
2023-06-19T13:07:15.253Z,95987.34
2023-06-19T13:09:42.012Z,95987.34
2023-06-19T13:12:09.384Z,95993.19
2023-06-19T13:14:36.277Z,95983.31
2023-06-19T13:17:03.638Z,95981.78
2023-06-19T13:19:30.393Z,95981.94
2023-06-19T13:21:57.162Z,95989.88
2023-06-19T13:24:24.063Z,95976.69
2023-06-19T13:26:50.961Z,95978.75
2023-06-19T13:29:17.777Z,95973.47
2023-06-19T13:31:44.548Z,95974.44
2023-06-19T13:34:11.604Z,95973.75
2023-06-19T13:36:38.685Z,95970.53
2023-06-19T13:39:05.580Z,95969.06
2023-06-19T13:41:33.687Z,95964.19
2023-06-19T13:44:01.476Z,95968.88
2023-06-19T13:46:28.670Z,95972.00
2023-06-19T13:48:55.444Z,95970.31
2023-06-19T13:51:22.949Z,95974.63
2023-06-19T13:53:51.014Z,95963.97
2023-06-19T13:56:18.011Z,95963.59
2023-06-19T13:58:44.950Z,95966.72
2023-06-19T14:01:11.714Z,95958.50
2023-06-19T14:03:42.307Z,95959.09
2023-06-19T14:06:09.768Z,95954.34
2023-06-19T14:08:36.492Z,95954.41
2023-06-19T14:11:03.519Z,95950.41
2023-06-19T14:13:30.541Z,95952.75
2023-06-19T14:15:57.474Z,95950.41
2023-06-19T14:18:24.157Z,95950.31
2023-06-19T14:20:52.068Z,95949.81
2023-06-19T14:23:18.796Z,95951.09
2023-06-19T14:25:45.549Z,95954.50
2023-06-19T14:28:12.330Z,95950.03
2023-06-19T14:30:39.940Z,95951.59
2023-06-19T14:33:06.636Z,95947.19
2023-06-19T14:35:33.374Z,95942.78
2023-06-19T14:38:00.191Z,95941.91
2023-06-19T14:40:27.200Z,95943.94
2023-06-19T14:42:54.295Z,95939.25
2023-06-19T14:45:21.355Z,95936.50
2023-06-19T14:47:48.332Z,95931.13
2023-06-19T14:50:15.302Z,95941.22
2023-06-19T14:52:42.053Z,95935.75
2023-06-19T14:55:09.084Z,95929.69
2023-06-19T14:57:37.566Z,95932.22
2023-06-19T15:00:06.841Z,95932.31
2023-06-19T15:02:33.862Z,95929.47
2023-06-19T15:05:06.265Z,95929.28
2023-06-19T15:07:34.077Z,95918.72
2023-06-19T15:10:00.844Z,95922.06
2023-06-19T15:12:27.907Z,95917.56
2023-06-19T15:14:54.656Z,95920.69
2023-06-19T15:17:22.518Z,95921.47
2023-06-19T15:19:49.493Z,95923.22
2023-06-19T15:22:16.452Z,95917.75
2023-06-19T15:24:43.650Z,95907.19
2023-06-19T15:27:10.477Z,95915.50
2023-06-19T15:29:37.311Z,95904.06
2023-06-19T15:32:04.384Z,95906.13
2023-06-19T15:34:31.352Z,95913.34
2023-06-19T15:36:58.080Z,95896.75
2023-06-19T15:39:25.457Z,95910.13
2023-06-19T15:41:52.232Z,95902.91
2023-06-19T15:44:19.000Z,95898.28
2023-06-19T15:46:46.304Z,95907.41
2023-06-19T15:49:13.957Z,95894.66
2023-06-19T15:51:40.706Z,95895.38
2023-06-19T15:54:07.529Z,95894.16
2023-06-19T15:56:34.300Z,95890.44
2023-06-19T15:59:01.082Z,95898.34
2023-06-19T16:01:27.886Z,95895.22
2023-06-19T16:03:54.791Z,95897.19
2023-06-19T16:06:21.664Z,95885.53
2023-06-19T16:08:49.648Z,95895.00
2023-06-19T16:11:16.403Z,95882.88
2023-06-19T16:13:43.188Z,95880.44
2023-06-19T16:16:10.113Z,95890.31
2023-06-19T16:18:37.896Z,95883.06
2023-06-19T16:21:05.758Z,95882.09
2023-06-19T16:23:32.541Z,95877.72
2023-06-19T16:25:59.841Z,95881.53
2023-06-19T16:28:27.675Z,95880.06
2023-06-19T16:30:54.564Z,95878.19
2023-06-19T16:33:21.459Z,95876.25
2023-06-19T16:35:48.311Z,95878.94
2023-06-19T16:38:15.101Z,95870.28
2023-06-19T16:40:42.121Z,95883.16
2023-06-19T16:43:10.953Z,95875.81
2023-06-19T16:45:38.841Z,95876.69
2023-06-19T16:50:32.565Z,95878.47
2023-06-19T16:53:00.046Z,95878.94
2023-06-19T16:55:26.780Z,95878.47
2023-06-19T16:57:53.511Z,95880.06
2023-06-19T17:00:20.858Z,95883.53
2023-06-19T17:02:48.525Z,95882.97
2023-06-19T17:05:15.474Z,95877.97
2023-06-19T17:07:42.323Z,95881.75
2023-06-19T17:10:09.595Z,95890.91
2023-06-19T17:12:36.456Z,95891.28
2023-06-19T17:15:03.383Z,95885.97
2023-06-19T17:17:30.313Z,95887.72
2023-06-19T17:19:57.422Z,95882.41
2023-06-19T17:22:24.269Z,95887.47
2023-06-19T17:24:52.581Z,95889.34
2023-06-19T17:27:19.354Z,95888.72
2023-06-19T17:29:46.104Z,95897.84
2023-06-19T17:32:12.892Z,95890.31
2023-06-19T17:34:39.647Z,95880.56
2023-06-19T17:37:06.771Z,95894.75
2023-06-19T17:39:33.527Z,95895.09
2023-06-19T17:42:00.275Z,95901.09
2023-06-19T17:44:29.128Z,95904.09
2023-06-19T17:46:57.298Z,95898.75
2023-06-19T17:49:24.616Z,95900.34
2023-06-19T17:51:51.617Z,95906.03
2023-06-19T17:54:18.518Z,95910.13
2023-06-19T17:56:45.862Z,95918.47
2023-06-19T17:59:14.637Z,95913.75
2023-06-19T18:01:41.957Z,95908.91
2023-06-19T18:04:09.596Z,95904.38
2023-06-19T18:06:36.803Z,95909.53
2023-06-19T18:09:06.676Z,95908.47
2023-06-19T18:11:34.271Z,95900.59
2023-06-19T18:14:02.252Z,95898.41
2023-06-19T18:16:29.341Z,95906.09
2023-06-19T18:18:56.428Z,95907.84
2023-06-19T18:21:23.340Z,95910.84
2023-06-19T18:23:50.459Z,95904.75
2023-06-19T18:26:17.583Z,95903.34
2023-06-19T18:28:46.419Z,95905.22
2023-06-19T18:31:14.549Z,95899.88
2023-06-19T18:33:42.310Z,95896.91
2023-06-19T18:36:09.713Z,95907.06
2023-06-19T18:38:36.820Z,95902.06
2023-06-19T18:41:05.447Z,95908.81
2023-06-19T18:43:35.293Z,95912.06
2023-06-19T18:46:03.928Z,95905.66
2023-06-19T18:48:31.193Z,95912.66
2023-06-19T18:50:59.189Z,95912.78
2023-06-19T18:53:26.540Z,95906.16
2023-06-19T18:55:56.860Z,95918.94
2023-06-19T18:58:23.761Z,95911.03
2023-06-19T19:00:50.544Z,95917.56
2023-06-19T19:03:18.632Z,95914.97
2023-06-19T19:05:45.649Z,95927.75
2023-06-19T19:08:14.105Z,95923.63
2023-06-19T19:10:41.483Z,95920.16
2023-06-19T19:13:08.858Z,95933.34
2023-06-19T19:15:39.593Z,95925.16
2023-06-19T19:18:06.623Z,95927.09
2023-06-19T19:20:33.407Z,95924.34
2023-06-19T19:23:00.076Z,95923.97
2023-06-19T19:25:26.862Z,95922.47
2023-06-19T19:27:53.663Z,95931.97
2023-06-19T19:30:20.466Z,95929.38
2023-06-19T19:32:47.378Z,95930.06
2023-06-19T19:35:14.124Z,95930.28
2023-06-19T19:37:40.889Z,95932.13
2023-06-19T19:40:08.351Z,95942.00
2023-06-19T19:42:35.166Z,95943.78
2023-06-19T19:45:03.762Z,95946.84
2023-06-19T19:47:32.368Z,95945.72
2023-06-19T19:49:59.157Z,95952.38
2023-06-19T19:52:26.343Z,95962.13
2023-06-19T19:54:54.952Z,95969.69
2023-06-19T19:57:22.060Z,95968.88
2023-06-19T19:59:50.383Z,95969.56
2023-06-19T20:02:17.389Z,95972.81
2023-06-19T20:04:44.192Z,95966.16
2023-06-19T20:07:11.135Z,95971.31
2023-06-19T20:09:38.086Z,95975.44
2023-06-19T20:12:20.803Z,95970.72
2023-06-19T20:14:48.481Z,95974.09
2023-06-19T20:17:15.538Z,95978.22
2023-06-19T20:19:42.805Z,95989.03
2023-06-19T20:22:09.866Z,95998.53
2023-06-19T20:24:38.177Z,96007.19
2023-06-19T20:27:06.999Z,95996.50
2023-06-19T20:29:34.239Z,96001.31
2023-06-19T20:32:01.916Z,95990.97
2023-06-19T20:34:28.865Z,96005.09
2023-06-19T20:36:57.872Z,95991.94
2023-06-19T20:39:24.815Z,96000.91
2023-06-19T20:41:51.687Z,96005.84
2023-06-19T20:44:19.335Z,96002.97
2023-06-19T20:46:46.135Z,96001.75
2023-06-19T20:49:13.379Z,95999.41
2023-06-19T20:51:40.754Z,96002.72
2023-06-19T20:54:08.089Z,95998.69
2023-06-19T20:56:35.944Z,95994.72
2023-06-19T20:59:03.496Z,95994.13
2023-06-19T21:01:31.207Z,95989.75
2023-06-19T21:04:03.054Z,95987.03
2023-06-19T21:06:34.338Z,95983.53
2023-06-19T21:09:04.329Z,95979.94
2023-06-19T21:11:31.805Z,95974.31
2023-06-19T21:13:59.001Z,95966.78
2023-06-19T21:16:26.019Z,95972.59
2023-06-19T21:18:52.861Z,95984.50
2023-06-19T21:21:19.813Z,95975.66
2023-06-19T21:23:46.892Z,95976.53
2023-06-19T21:26:14.314Z,95968.56
2023-06-19T21:28:41.190Z,95970.59
2023-06-19T21:31:08.160Z,95969.44
2023-06-19T21:33:35.683Z,95971.56
2023-06-19T21:36:03.629Z,95978.38
2023-06-19T21:38:31.007Z,95981.63
2023-06-19T21:40:58.461Z,95982.50
2023-06-19T21:43:25.768Z,95993.63
2023-06-19T21:45:53.577Z,95988.31
2023-06-19T21:48:20.844Z,95974.91
2023-06-19T21:50:47.814Z,95984.38
2023-06-19T21:53:14.605Z,95979.28
2023-06-19T21:55:41.484Z,95971.31
2023-06-19T21:58:08.453Z,95965.06
2023-06-19T22:00:35.212Z,95964.81
2023-06-19T22:03:02.167Z,95958.06
2023-06-19T22:05:29.865Z,95954.91
2023-06-19T22:07:57.105Z,95954.22
2023-06-19T22:10:25.398Z,95966.25
2023-06-19T22:12:52.893Z,95971.31
2023-06-19T22:15:19.768Z,95967.44
2023-06-19T22:17:46.733Z,95977.94
2023-06-19T22:20:15.919Z,95980.72
2023-06-19T22:22:42.760Z,95979.00
2023-06-19T22:25:09.783Z,95982.41
2023-06-19T22:27:36.931Z,95979.38
2023-06-19T22:30:04.798Z,95975.25
2023-06-19T22:32:31.793Z,95978.88
2023-06-19T22:34:58.840Z,95977.22
2023-06-19T22:37:26.426Z,95977.31
2023-06-19T22:39:53.642Z,95987.84
2023-06-19T22:42:20.358Z,95988.78
2023-06-19T22:44:47.601Z,95982.88
2023-06-19T22:47:15.186Z,95984.19
2023-06-19T22:49:43.945Z,95982.63
2023-06-19T22:52:11.368Z,95982.25
2023-06-19T22:54:39.444Z,95979.44
2023-06-19T22:57:06.718Z,95983.53
2023-06-19T22:59:33.416Z,95984.81
2023-06-19T23:02:00.071Z,95977.25
2023-06-19T23:04:26.832Z,95973.66
2023-06-19T23:06:53.990Z,95976.88
2023-06-19T23:09:21.738Z,95969.28
2023-06-19T23:11:50.496Z,95972.13
2023-06-19T23:14:17.559Z,95972.41
2023-06-19T23:16:44.766Z,95972.41
2023-06-19T23:19:13.249Z,95968.59
2023-06-19T23:21:40.474Z,95972.78
2023-06-19T23:24:07.565Z,95983.22
2023-06-19T23:26:35.237Z,95980.78
2023-06-19T23:29:03.110Z,95981.22
2023-06-19T23:31:29.995Z,95981.75
2023-06-19T23:34:00.233Z,95979.91
2023-06-19T23:36:27.931Z,95987.56
2023-06-19T23:38:55.067Z,95986.81
2023-06-19T23:41:22.172Z,95980.84
2023-06-19T23:43:50.237Z,95986.88
2023-06-19T23:46:19.229Z,95981.41
2023-06-19T23:48:46.629Z,95979.38
2023-06-19T23:51:14.340Z,95975.94
2023-06-19T23:53:41.084Z,95972.84
2023-06-19T23:56:07.892Z,95964.81
2023-06-19T23:58:35.001Z,95967.31
